^^
Station Historical Data
 
Daily Summary for May 24, 2017 Units:  Both    English   Metric
« Previous Day
Next Day »
Daily Weekly Monthly Yearly Custom
  Current: High: Low: Average:
Temperature: 70.0 °F /  21.1 °C 70.0 °F /  21.1 °C 44.8 °F /  7.1 °C 51.4 °F /  10.8 °C
Dew Point: 39.6 °F /  4.2 °C 41.0 °F /  5 °C 34.5 °F /  1.4 °C 36.9 °F /  2.7 °C
Humidity: 33% 73% 33% 59%
Wind Speed: 2.0mph /  3.2km/h 6.9mph /  11.1km/h - 0.4mph /  0.6km/h
Wind Gust: 11.0mph /  17.7km/h 11.0mph /  17.7km/h - -
WindNNW - - SW
Pressure: 30.34 in /  1027.3 hPa 30.37 in /  1028.3 hPa 30.30 in /  1026 hPa -
Precipitation: 0.00 in /  0 mm      
Historical Graphs
 
 
Tabular Data for May 24, 2017
Time Temperature Dew Point Pressure Wind Wind Speed Wind Gust Humidity Rainfall Rate (Hourly) solar Conditions
00:01 48.4 °F /  9.1 °C 34.7 °F /  1.5 °C 30.37in /  1028.3hPa Calm     59% 0.00in /  0mm 0.0 W/m2
00:07 48.0 °F /  8.9 °C 34.9 °F /  1.6 °C 30.37in /  1028.3hPa Calm     60% 0.00in /  0mm 0.0 W/m2
00:13 47.8 °F /  8.8 °C 34.7 °F /  1.5 °C 30.37in /  1028.3hPa Calm     60% 0.00in /  0mm 0.0 W/m2
00:20 47.7 °F /  8.7 °C 34.5 °F /  1.4 °C 30.37in /  1028.3hPa Calm     60% 0.00in /  0mm 0.0 W/m2
00:26 47.7 °F /  8.7 °C 34.9 °F /  1.6 °C 30.37in /  1028.3hPa Calm     61% 0.00in /  0mm 0.0 W/m2
00:32 47.5 °F /  8.6 °C 34.7 °F /  1.5 °C 30.37in /  1028.3hPa Calm   1.0mph /  1.6km/h 61% 0.00in /  0mm 0.0 W/m2
00:38 47.5 °F /  8.6 °C 34.7 °F /  1.5 °C 30.37in /  1028.3hPa Calm   1.0mph /  1.6km/h 61% 0.00in /  0mm 0.0 W/m2
00:44 47.5 °F /  8.6 °C 34.7 °F /  1.5 °C 30.37in /  1028.3hPa Calm     61% 0.00in /  0mm 0.0 W/m2
00:50 47.7 °F /  8.7 °C 34.9 °F /  1.6 °C 30.37in /  1028.3hPa Calm     61% 0.00in /  0mm 0.0 W/m2
00:56 47.5 °F /  8.6 °C 34.7 °F /  1.5 °C 30.37in /  1028.3hPa Calm   1.0mph /  1.6km/h 61% 0.00in /  0mm 0.0 W/m2
01:02 47.5 °F /  8.6 °C 34.7 °F /  1.5 °C 30.37in /  1028.3hPa Calm     61% 0.00in /  0mm 0.0 W/m2
01:09 47.5 °F /  8.6 °C 34.7 °F /  1.5 °C 30.37in /  1028.3hPa Calm   1.0mph /  1.6km/h 61% 0.00in /  0mm 0.0 W/m2
01:15 47.5 °F /  8.6 °C 35.1 °F /  1.7 °C 30.37in /  1028.3hPa Calm     62% 0.00in /  0mm 0.0 W/m2
01:21 47.5 °F /  8.6 °C 35.1 °F /  1.7 °C 30.37in /  1028.3hPa Calm   3.0mph /  4.8km/h 62% 0.00in /  0mm 0.0 W/m2
01:27 47.5 °F /  8.6 °C 35.1 °F /  1.7 °C 30.36in /  1028hPa Calm     62% 0.00in /  0mm 0.0 W/m2
01:33 47.5 °F /  8.6 °C 35.1 °F /  1.7 °C 30.37in /  1028.3hPa Calm   1.0mph /  1.6km/h 62% 0.00in /  0mm 0.0 W/m2
01:39 47.5 °F /  8.6 °C 35.1 °F /  1.7 °C 30.36in /  1028hPa Calm   2.0mph /  3.2km/h 62% 0.00in /  0mm 0.0 W/m2
01:45 47.5 °F /  8.6 °C 35.1 °F /  1.7 °C 30.36in /  1028hPa Calm   2.0mph /  3.2km/h 62% 0.00in /  0mm 0.0 W/m2
01:51 47.5 °F /  8.6 °C 35.1 °F /  1.7 °C 30.36in /  1028hPa Calm   1.0mph /  1.6km/h 62% 0.00in /  0mm 0.0 W/m2
01:58 47.5 °F /  8.6 °C 35.1 °F /  1.7 °C 30.36in /  1028hPa Calm   2.0mph /  3.2km/h 62% 0.00in /  0mm 0.0 W/m2
02:04 47.3 °F /  8.5 °C 35.4 °F /  1.9 °C 30.36in /  1028hPa Calm   1.0mph /  1.6km/h 63% 0.00in /  0mm 0.0 W/m2
02:10 47.3 °F /  8.5 °C 35.4 °F /  1.9 °C 30.36in /  1028hPa Calm   1.0mph /  1.6km/h 63% 0.00in /  0mm 0.0 W/m2
02:16 47.1 °F /  8.4 °C 35.2 °F /  1.8 °C 30.36in /  1028hPa Calm     63% 0.00in /  0mm 0.0 W/m2
02:22 47.3 °F /  8.5 °C 35.4 °F /  1.9 °C 30.36in /  1028hPa Calm     63% 0.00in /  0mm 0.0 W/m2
02:28 47.1 °F /  8.4 °C 35.2 °F /  1.8 °C 30.36in /  1028hPa Calm     63% 0.00in /  0mm 0.0 W/m2
02:35 47.1 °F /  8.4 °C 35.2 °F /  1.8 °C 30.35in /  1027.7hPa Calm   2.0mph /  3.2km/h 63% 0.00in /  0mm 0.0 W/m2
02:41 46.9 °F /  8.3 °C 35.1 °F /  1.7 °C 30.35in /  1027.7hPa Calm   2.0mph /  3.2km/h 63% 0.00in /  0mm 0.0 W/m2
02:47 46.9 °F /  8.3 °C 35.4 °F /  1.9 °C 30.35in /  1027.7hPa Calm     64% 0.00in /  0mm 0.0 W/m2
02:53 46.9 °F /  8.3 °C 35.4 °F /  1.9 °C 30.35in /  1027.7hPa Calm     64% 0.00in /  0mm 0.0 W/m2
02:59 46.8 °F /  8.2 °C 35.2 °F /  1.8 °C 30.35in /  1027.7hPa Calm     64% 0.00in /  0mm 0.0 W/m2
03:05 46.8 °F /  8.2 °C 35.2 °F /  1.8 °C 30.35in /  1027.7hPa Calm     64% 0.00in /  0mm 0.0 W/m2
03:11 46.6 °F /  8.1 °C 35.4 °F /  1.9 °C 30.35in /  1027.7hPa Calm   1.0mph /  1.6km/h 65% 0.00in /  0mm 0.0 W/m2
03:17 46.6 °F /  8.1 °C 35.4 °F /  1.9 °C 30.35in /  1027.7hPa Calm     65% 0.00in /  0mm 0.0 W/m2
03:24 46.6 °F /  8.1 °C 35.4 °F /  1.9 °C 30.35in /  1027.7hPa Calm   1.0mph /  1.6km/h 65% 0.00in /  0mm 0.0 W/m2
03:30 46.6 °F /  8.1 °C 35.4 °F /  1.9 °C 30.35in /  1027.7hPa Calm     65% 0.00in /  0mm 0.0 W/m2
03:36 46.4 °F /  8 °C 35.2 °F /  1.8 °C 30.35in /  1027.7hPa East 0.9mph /  1.4km/h 1.0mph /  1.6km/h 65% 0.00in /  0mm 0.0 W/m2
03:42 46.2 °F /  7.9 °C 35.1 °F /  1.7 °C 30.35in /  1027.7hPa Calm   2.0mph /  3.2km/h 65% 0.00in /  0mm 0.0 W/m2
03:48 46.2 °F /  7.9 °C 35.4 °F /  1.9 °C 30.35in /  1027.7hPa Calm   1.0mph /  1.6km/h 66% 0.00in /  0mm 0.0 W/m2
03:54 46.2 °F /  7.9 °C 35.4 °F /  1.9 °C 30.35in /  1027.7hPa Calm   1.0mph /  1.6km/h 66% 0.00in /  0mm 0.0 W/m2
04:00 46.2 °F /  7.9 °C 35.4 °F /  1.9 °C 30.35in /  1027.7hPa Calm   2.0mph /  3.2km/h 66% 0.00in /  0mm 0.0 W/m2
04:07 46.2 °F /  7.9 °C 35.4 °F /  1.9 °C 30.35in /  1027.7hPa Calm   1.0mph /  1.6km/h 66% 0.00in /  0mm 0.0 W/m2
04:13 46.0 °F /  7.8 °C 35.2 °F /  1.8 °C 30.30in /  1026hPa Calm   1.0mph /  1.6km/h 66% 0.00in /  0mm 0.0 W/m2
04:19 46.0 °F /  7.8 °C 35.8 °F /  2.1 °C 30.30in /  1026hPa Calm   2.0mph /  3.2km/h 67% 0.00in /  0mm 0.0 W/m2
04:25 46.0 °F /  7.8 °C 35.8 °F /  2.1 °C 30.30in /  1026hPa Calm   1.0mph /  1.6km/h 67% 0.00in /  0mm 0.0 W/m2
04:31 46.0 °F /  7.8 °C 35.8 °F /  2.1 °C 30.30in /  1026hPa Calm     67% 0.00in /  0mm 0.0 W/m2
04:37 45.9 °F /  7.7 °C 35.6 °F /  2 °C 30.30in /  1026hPa Calm   2.0mph /  3.2km/h 67% 0.00in /  0mm 0.0 W/m2
04:43 45.9 °F /  7.7 °C 35.6 °F /  2 °C 30.30in /  1026hPa East 2.9mph /  4.7km/h 3.0mph /  4.8km/h 67% 0.00in /  0mm 0.0 W/m2
04:49 45.9 °F /  7.7 °C 35.6 °F /  2 °C 30.30in /  1026hPa East 0.9mph /  1.4km/h 3.0mph /  4.8km/h 67% 0.00in /  0mm 0.0 W/m2
04:56 45.9 °F /  7.7 °C 35.6 °F /  2 °C 30.31in /  1026.3hPa Calm   1.0mph /  1.6km/h 67% 0.00in /  0mm 0.0 W/m2
05:02 45.7 °F /  7.6 °C 35.8 °F /  2.1 °C 30.31in /  1026.3hPa Calm   3.0mph /  4.8km/h 68% 0.00in /  0mm 0.0 W/m2
05:08 45.7 °F /  7.6 °C 35.8 °F /  2.1 °C 30.31in /  1026.3hPa Calm   1.0mph /  1.6km/h 68% 0.00in /  0mm 0.0 W/m2
05:14 45.7 °F /  7.6 °C 35.8 °F /  2.1 °C 30.31in /  1026.3hPa Calm   1.0mph /  1.6km/h 68% 0.00in /  0mm 0.0 W/m2
05:20 45.5 °F /  7.5 °C 35.6 °F /  2 °C 30.31in /  1026.3hPa Calm   2.0mph /  3.2km/h 68% 0.00in /  0mm 0.0 W/m2
05:26 45.5 °F /  7.5 °C 36.0 °F /  2.2 °C 30.31in /  1026.3hPa Calm   3.0mph /  4.8km/h 69% 0.00in /  0mm 0.0 W/m2
05:32 45.3 °F /  7.4 °C 35.8 °F /  2.1 °C 30.31in /  1026.3hPa Calm   1.0mph /  1.6km/h 69% 0.00in /  0mm 0.0 W/m2
05:39 45.3 °F /  7.4 °C 35.8 °F /  2.1 °C 30.31in /  1026.3hPa Calm     69% 0.00in /  0mm 0.0 W/m2
05:45 45.3 °F /  7.4 °C 35.8 °F /  2.1 °C 30.31in /  1026.3hPa Calm     69% 0.00in /  0mm 0.0 W/m2
05:51 45.3 °F /  7.4 °C 35.8 °F /  2.1 °C 30.31in /  1026.3hPa Calm   1.0mph /  1.6km/h 69% 0.00in /  0mm 0.0 W/m2
05:57 45.3 °F /  7.4 °C 35.8 °F /  2.1 °C 30.32in /  1026.6hPa Calm     69% 0.00in /  0mm 0.0 W/m2
06:03 45.1 °F /  7.3 °C 35.6 °F /  2 °C 30.32in /  1026.6hPa Calm     69% 0.00in /  0mm 0.0 W/m2
06:09 45.0 °F /  7.2 °C 35.8 °F /  2.1 °C 30.32in /  1026.6hPa Calm     70% 0.00in /  0mm 0.0 W/m2
06:15 45.0 °F /  7.2 °C 35.8 °F /  2.1 °C 30.32in /  1026.6hPa Calm     70% 0.00in /  0mm 0.0 W/m2
06:22 44.8 °F /  7.1 °C 36.0 °F /  2.2 °C 30.32in /  1026.6hPa Calm     71% 0.00in /  0mm 0.0 W/m2
06:28 44.8 °F /  7.1 °C 36.0 °F /  2.2 °C 30.32in /  1026.6hPa Calm     71% 0.00in /  0mm 7.0 W/m2
06:34 44.8 °F /  7.1 °C 36.0 °F /  2.2 °C 30.32in /  1026.6hPa Calm     71% 0.00in /  0mm 9.0 W/m2
06:40 44.8 °F /  7.1 °C 36.0 °F /  2.2 °C 30.32in /  1026.6hPa Calm     71% 0.00in /  0mm 11.0 W/m2
06:48 44.8 °F /  7.1 °C 36.3 °F /  2.4 °C 30.32in /  1026.6hPa Calm     72% 0.00in /  0mm 14.0 W/m2
06:54 45.0 °F /  7.2 °C 36.5 °F /  2.5 °C 30.33in /  1027hPa Calm   1.0mph /  1.6km/h 72% 0.00in /  0mm 16.0 W/m2
07:00 45.0 °F /  7.2 °C 36.5 °F /  2.5 °C 30.33in /  1027hPa Calm   1.0mph /  1.6km/h 72% 0.00in /  0mm 18.0 W/m2
07:06 45.1 °F /  7.3 °C 36.7 °F /  2.6 °C 30.33in /  1027hPa Calm     72% 0.00in /  0mm 19.0 W/m2
07:13 45.1 °F /  7.3 °C 37.0 °F /  2.8 °C 30.34in /  1027.3hPa Calm   1.0mph /  1.6km/h 73% 0.00in /  0mm 21.0 W/m2
07:19 45.5 °F /  7.5 °C 37.4 °F /  3 °C 30.34in /  1027.3hPa Calm   1.0mph /  1.6km/h 73% 0.00in /  0mm 21.0 W/m2
07:25 45.9 °F /  7.7 °C 37.8 °F /  3.2 °C 30.34in /  1027.3hPa Calm   1.0mph /  1.6km/h 73% 0.00in /  0mm 23.0 W/m2
07:31 46.2 °F /  7.9 °C 38.1 °F /  3.4 °C 30.34in /  1027.3hPa Calm   1.0mph /  1.6km/h 73% 0.00in /  0mm 25.0 W/m2
07:37 46.6 °F /  8.1 °C 38.1 °F /  3.4 °C 30.34in /  1027.3hPa Calm     72% 0.00in /  0mm 26.0 W/m2
07:43 46.9 °F /  8.3 °C 38.7 °F /  3.7 °C 30.34in /  1027.3hPa Calm   1.0mph /  1.6km/h 73% 0.00in /  0mm 26.0 W/m2
07:49 47.5 °F /  8.6 °C 38.8 °F /  3.8 °C 30.34in /  1027.3hPa Calm     72% 0.00in /  0mm 28.0 W/m2
07:55 48.4 °F /  9.1 °C 39.4 °F /  4.1 °C 30.34in /  1027.3hPa Calm     71% 0.00in /  0mm 30.0 W/m2
08:01 50.4 °F /  10.2 °C 40.3 °F /  4.6 °C 30.35in /  1027.7hPa Calm     68% 0.00in /  0mm 37.0 W/m2
08:08 53.1 °F /  11.7 °C 40.8 °F /  4.9 °C 30.35in /  1027.7hPa Calm     63% 0.00in /  0mm 336.0 W/m2
08:14 55.2 °F /  12.9 °C 40.3 °F /  4.6 °C 30.35in /  1027.7hPa Calm     57% 0.00in /  0mm 357.0 W/m2
08:22 57.7 °F /  14.3 °C 40.6 °F /  4.8 °C 30.35in /  1027.7hPa NNE 0.9mph /  1.4km/h 2.0mph /  3.2km/h 53% 0.00in /  0mm 385.0 W/m2
08:28 59.5 °F /  15.3 °C 40.8 °F /  4.9 °C 30.35in /  1027.7hPa Calm   1.0mph /  1.6km/h 50% 0.00in /  0mm 404.0 W/m2
08:34 61.0 °F /  16.1 °C 40.1 °F /  4.5 °C 30.35in /  1027.7hPa Calm   1.0mph /  1.6km/h 46% 0.00in /  0mm 422.0 W/m2
08:40 62.2 °F /  16.8 °C 40.1 °F /  4.5 °C 30.36in /  1028hPa NW 0.9mph /  1.4km/h 3.0mph /  4.8km/h 44% 0.00in /  0mm 443.0 W/m2
08:46 63.5 °F /  17.5 °C 39.9 °F /  4.4 °C 30.36in /  1028hPa Calm   4.0mph /  6.4km/h 42% 0.00in /  0mm 461.0 W/m2
08:53 64.2 °F /  17.9 °C 40.1 °F /  4.5 °C 30.36in /  1028hPa NNE 0.9mph /  1.4km/h 1.0mph /  1.6km/h 41% 0.00in /  0mm 478.0 W/m2
08:59 64.9 °F /  18.3 °C 40.1 °F /  4.5 °C 30.36in /  1028hPa Calm   2.0mph /  3.2km/h 40% 0.00in /  0mm 496.0 W/m2
09:05 65.7 °F /  18.7 °C 40.6 °F /  4.8 °C 30.36in /  1028hPa NNW 2.0mph /  3.2km/h 2.0mph /  3.2km/h 40% 0.00in /  0mm 512.0 W/m2
09:11 66.4 °F /  19.1 °C 40.6 °F /  4.8 °C 30.36in /  1028hPa NW 2.9mph /  4.7km/h 6.0mph /  9.7km/h 39% 0.00in /  0mm 527.0 W/m2
09:17 66.9 °F /  19.4 °C 40.5 °F /  4.7 °C 30.36in /  1028hPa NW 0.9mph /  1.4km/h 4.0mph /  6.4km/h 38% 0.00in /  0mm 541.0 W/m2
09:23 67.6 °F /  19.8 °C 39.7 °F /  4.3 °C 30.36in /  1028hPa Calm   3.0mph /  4.8km/h 36% 0.00in /  0mm 557.0 W/m2
09:29 68.0 °F /  20 °C 40.8 °F /  4.9 °C 30.35in /  1027.7hPa Calm   2.0mph /  3.2km/h 37% 0.00in /  0mm 571.0 W/m2
09:35 68.4 °F /  20.2 °C 41.0 °F /  5 °C 30.35in /  1027.7hPa WSW 0.9mph /  1.4km/h 5.0mph /  8km/h 37% 0.00in /  0mm 584.0 W/m2
09:42 68.5 °F /  20.3 °C 39.7 °F /  4.3 °C 30.35in /  1027.7hPa Calm   2.0mph /  3.2km/h 35% 0.00in /  0mm 594.0 W/m2
09:48 68.9 °F /  20.5 °C 40.1 °F /  4.5 °C 30.35in /  1027.7hPa NNW 2.0mph /  3.2km/h 3.0mph /  4.8km/h 35% 0.00in /  0mm 606.0 W/m2
09:54 69.3 °F /  20.7 °C 39.7 °F /  4.3 °C 30.35in /  1027.7hPa Calm   3.0mph /  4.8km/h 34% 0.00in /  0mm 617.0 W/m2
10:00 69.6 °F /  20.9 °C 39.9 °F /  4.4 °C 30.35in /  1027.7hPa Calm   4.0mph /  6.4km/h 34% 0.00in /  0mm 626.0 W/m2
10:06 69.6 °F /  20.9 °C 39.9 °F /  4.4 °C 30.35in /  1027.7hPa West 0.9mph /  1.4km/h 2.0mph /  3.2km/h 34% 0.00in /  0mm 629.0 W/m2
10:12 69.8 °F /  21 °C 39.4 °F /  4.1 °C 30.34in /  1027.3hPa NE 2.0mph /  3.2km/h 5.0mph /  8km/h 33% 0.00in /  0mm 649.0 W/m2
10:18 69.6 °F /  20.9 °C 39.2 °F /  4 °C 30.34in /  1027.3hPa NW 4.9mph /  7.9km/h 5.0mph /  8km/h 33% 0.00in /  0mm 656.0 W/m2
10:24 69.4 °F /  20.8 °C 39.0 °F /  3.9 °C 30.34in /  1027.3hPa NW 2.0mph /  3.2km/h 6.0mph /  9.7km/h 33% 0.00in /  0mm 671.0 W/m2
10:31 69.4 °F /  20.8 °C 39.9 °F /  4.4 °C 30.34in /  1027.3hPa West 6.9mph /  11.1km/h 7.0mph /  11.3km/h 34% 0.00in /  0mm 671.0 W/m2
10:37 69.4 °F /  20.8 °C 39.9 °F /  4.4 °C 30.34in /  1027.3hPa NW 2.0mph /  3.2km/h 7.0mph /  11.3km/h 34% 0.00in /  0mm 691.0 W/m2
10:43 69.6 °F /  20.9 °C 39.2 °F /  4 °C 30.34in /  1027.3hPa West 0.9mph /  1.4km/h 2.0mph /  3.2km/h 33% 0.00in /  0mm 693.0 W/m2
10:49 70.0 °F /  21.1 °C 39.6 °F /  4.2 °C 30.34in /  1027.3hPa NNW 2.0mph /  3.2km/h 11.0mph /  17.7km/h 33% 0.00in /  0mm 698.0 W/m2
Olympia, Windhoek, Namibia
Compliments of Weather Underground - 3.5 mb